sensor_id;sensor_type;location;lat;lon;timestamp;P1;durP1;ratioP1;P2;durP2;ratioP2
45762;SDS011;37512;52.408;13.356;2022-08-11T00:00:48;4.97;;;1.83;;
45762;SDS011;37512;52.408;13.356;2022-08-11T00:04:50;3.75;;;1.83;;
45762;SDS011;37512;52.408;13.356;2022-08-11T00:08:53;3.42;;;1.90;;
45762;SDS011;37512;52.408;13.356;2022-08-11T00:12:56;3.42;;;1.77;;
45762;SDS011;37512;52.408;13.356;2022-08-11T00:17:04;2.08;;;1.60;;
45762;SDS011;37512;52.408;13.356;2022-08-11T00:21:09;6.03;;;1.95;;
45762;SDS011;37512;52.408;13.356;2022-08-11T00:25:14;3.60;;;2.17;;
45762;SDS011;37512;52.408;13.356;2022-08-11T00:29:18;3.30;;;1.80;;
45762;SDS011;37512;52.408;13.356;2022-08-11T00:33:29;3.75;;;2.10;;
45762;SDS011;37512;52.408;13.356;2022-08-11T00:37:49;4.95;;;1.98;;
45762;SDS011;37512;52.408;13.356;2022-08-11T01:08:41;2.22;;;1.77;;
45762;SDS011;37512;52.408;13.356;2022-08-11T01:44:34;2.83;;;2.10;;
45762;SDS011;37512;52.408;13.356;2022-08-11T01:48:42;2.67;;;1.73;;
45762;SDS011;37512;52.408;13.356;2022-08-11T01:58:00;4.07;;;2.50;;
45762;SDS011;37512;52.408;13.356;2022-08-11T02:02:17;4.60;;;1.80;;
45762;SDS011;37512;52.408;13.356;2022-08-11T02:06:28;2.53;;;1.88;;
45762;SDS011;37512;52.408;13.356;2022-08-11T02:15:34;3.45;;;2.25;;
45762;SDS011;37512;52.408;13.356;2022-08-11T02:19:47;2.08;;;1.77;;
45762;SDS011;37512;52.408;13.356;2022-08-11T02:24:27;3.25;;;1.80;;
45762;SDS011;37512;52.408;13.356;2022-08-11T02:33:23;4.80;;;1.75;;
45762;SDS011;37512;52.408;13.356;2022-08-11T02:46:48;3.47;;;1.98;;
45762;SDS011;37512;52.408;13.356;2022-08-11T03:04:12;4.18;;;1.92;;
45762;SDS011;37512;52.408;13.356;2022-08-11T03:08:40;5.95;;;2.10;;
45762;SDS011;37512;52.408;13.356;2022-08-11T03:17:45;3.80;;;1.95;;
45762;SDS011;37512;52.408;13.356;2022-08-11T03:30:41;2.70;;;1.80;;
45762;SDS011;37512;52.408;13.356;2022-08-11T03:34:48;3.28;;;2.33;;
45762;SDS011;37512;52.408;13.356;2022-08-11T03:38:55;12.20;;;2.63;;
45762;SDS011;37512;52.408;13.356;2022-08-11T03:43:27;6.15;;;2.85;;
45762;SDS011;37512;52.408;13.356;2022-08-11T03:48:13;8.43;;;2.40;;
45762;SDS011;37512;52.408;13.356;2022-08-11T04:56:38;4.75;;;2.83;;
45762;SDS011;37512;52.408;13.356;2022-08-11T05:06:03;7.57;;;2.92;;
45762;SDS011;37512;52.408;13.356;2022-08-11T05:10:23;8.18;;;3.35;;
45762;SDS011;37512;52.408;13.356;2022-08-11T05:14:50;8.10;;;3.33;;
45762;SDS011;37512;52.408;13.356;2022-08-11T05:19:14;4.53;;;3.25;;
45762;SDS011;37512;52.408;13.356;2022-08-11T05:23:45;6.10;;;3.53;;
45762;SDS011;37512;52.408;13.356;2022-08-11T05:32:35;4.20;;;3.22;;
45762;SDS011;37512;52.408;13.356;2022-08-11T05:37:08;9.55;;;3.50;;
45762;SDS011;37512;52.408;13.356;2022-08-11T05:41:29;5.50;;;3.42;;
45762;SDS011;37512;52.408;13.356;2022-08-11T05:46:23;8.50;;;3.70;;
45762;SDS011;37512;52.408;13.356;2022-08-11T05:50:37;8.00;;;3.72;;
45762;SDS011;37512;52.408;13.356;2022-08-11T05:55:02;7.15;;;3.67;;
45762;SDS011;37512;52.408;13.356;2022-08-11T05:59:24;6.22;;;3.78;;
45762;SDS011;37512;52.408;13.356;2022-08-11T06:03:29;5.72;;;3.78;;
45762;SDS011;37512;52.408;13.356;2022-08-11T06:07:32;8.88;;;4.00;;
45762;SDS011;37512;52.408;13.356;2022-08-11T06:11:50;9.02;;;3.70;;
45762;SDS011;37512;52.408;13.356;2022-08-11T06:15:52;6.30;;;3.25;;
45762;SDS011;37512;52.408;13.356;2022-08-11T06:19:59;6.63;;;3.85;;
45762;SDS011;37512;52.408;13.356;2022-08-11T06:24:11;11.20;;;3.92;;
45762;SDS011;37512;52.408;13.356;2022-08-11T06:28:15;5.25;;;3.78;;
45762;SDS011;37512;52.408;13.356;2022-08-11T06:32:27;12.10;;;3.55;;
45762;SDS011;37512;52.408;13.356;2022-08-11T06:40:58;5.10;;;3.53;;
45762;SDS011;37512;52.408;13.356;2022-08-11T06:45:26;8.18;;;3.60;;
45762;SDS011;37512;52.408;13.356;2022-08-11T06:49:32;5.70;;;3.05;;
45762;SDS011;37512;52.408;13.356;2022-08-11T06:53:55;17.23;;;9.70;;
45762;SDS011;37512;52.408;13.356;2022-08-11T06:58:10;6.10;;;4.03;;
45762;SDS011;37512;52.408;13.356;2022-08-11T07:02:45;9.23;;;3.20;;
45762;SDS011;37512;52.408;13.356;2022-08-11T07:07:04;4.72;;;3.00;;
45762;SDS011;37512;52.408;13.356;2022-08-11T07:16:18;8.00;;;3.60;;
45762;SDS011;37512;52.408;13.356;2022-08-11T07:20:26;9.25;;;3.17;;
45762;SDS011;37512;52.408;13.356;2022-08-11T07:29:21;7.10;;;2.95;;
45762;SDS011;37512;52.408;13.356;2022-08-11T07:33:38;9.20;;;2.90;;
45762;SDS011;37512;52.408;13.356;2022-08-11T07:38:06;7.38;;;3.00;;
45762;SDS011;37512;52.408;13.356;2022-08-11T07:42:12;12.05;;;3.30;;
45762;SDS011;37512;52.408;13.356;2022-08-11T07:46:16;5.30;;;2.90;;
45762;SDS011;37512;52.408;13.356;2022-08-11T07:50:40;8.35;;;3.78;;
45762;SDS011;37512;52.408;13.356;2022-08-11T07:55:03;19.70;;;3.97;;
45762;SDS011;37512;52.408;13.356;2022-08-11T07:59:08;4.68;;;2.47;;
45762;SDS011;37512;52.408;13.356;2022-08-11T08:03:48;4.53;;;2.50;;
45762;SDS011;37512;52.408;13.356;2022-08-11T08:08:10;7.70;;;3.17;;
45762;SDS011;37512;52.408;13.356;2022-08-11T08:12:33;8.10;;;2.55;;
45762;SDS011;37512;52.408;13.356;2022-08-11T08:16:55;8.73;;;2.80;;
45762;SDS011;37512;52.408;13.356;2022-08-11T08:21:16;4.45;;;2.78;;
45762;SDS011;37512;52.408;13.356;2022-08-11T08:25:18;6.45;;;3.17;;
45762;SDS011;37512;52.408;13.356;2022-08-11T08:29:20;7.68;;;2.97;;
45762;SDS011;37512;52.408;13.356;2022-08-11T08:33:40;11.23;;;2.72;;
45762;SDS011;37512;52.408;13.356;2022-08-11T08:37:43;3.67;;;2.65;;
45762;SDS011;37512;52.408;13.356;2022-08-11T08:41:54;4.03;;;2.47;;
45762;SDS011;37512;52.408;13.356;2022-08-11T08:45:58;4.22;;;2.50;;
45762;SDS011;37512;52.408;13.356;2022-08-11T08:50:07;4.70;;;2.30;;
45762;SDS011;37512;52.408;13.356;2022-08-11T08:54:18;4.72;;;2.72;;
45762;SDS011;37512;52.408;13.356;2022-08-11T08:58:21;5.97;;;2.85;;
45762;SDS011;37512;52.408;13.356;2022-08-11T09:02:25;4.35;;;2.75;;
45762;SDS011;37512;52.408;13.356;2022-08-11T09:06:38;3.30;;;2.28;;
45762;SDS011;37512;52.408;13.356;2022-08-11T09:10:40;6.38;;;2.58;;
45762;SDS011;37512;52.408;13.356;2022-08-11T09:14:42;7.32;;;2.70;;
45762;SDS011;37512;52.408;13.356;2022-08-11T09:19:06;3.05;;;2.10;;
45762;SDS011;37512;52.408;13.356;2022-08-11T09:23:08;3.95;;;3.03;;
45762;SDS011;37512;52.408;13.356;2022-08-11T09:27:49;3.67;;;2.10;;
45762;SDS011;37512;52.408;13.356;2022-08-11T09:31:53;4.30;;;2.53;;
45762;SDS011;37512;52.408;13.356;2022-08-11T09:35:56;4.90;;;2.15;;
45762;SDS011;37512;52.408;13.356;2022-08-11T09:39:58;7.95;;;2.25;;
45762;SDS011;37512;52.408;13.356;2022-08-11T09:44:19;6.53;;;2.50;;
45762;SDS011;37512;52.408;13.356;2022-08-11T09:48:44;3.22;;;2.25;;
45762;SDS011;37512;52.408;13.356;2022-08-11T09:52:47;4.13;;;2.15;;
45762;SDS011;37512;52.408;13.356;2022-08-11T09:57:11;4.35;;;2.47;;
45762;SDS011;37512;52.408;13.356;2022-08-11T10:01:36;4.22;;;1.90;;
45762;SDS011;37512;52.408;13.356;2022-08-11T10:05:52;3.38;;;2.05;;
45762;SDS011;37512;52.408;13.356;2022-08-11T10:10:35;3.42;;;1.90;;
45762;SDS011;37512;52.408;13.356;2022-08-11T10:14:45;2.50;;;1.70;;
45762;SDS011;37512;52.408;13.356;2022-08-11T10:19:08;4.05;;;2.10;;
45762;SDS011;37512;52.408;13.356;2022-08-11T10:23:11;2.83;;;1.70;;
45762;SDS011;37512;52.408;13.356;2022-08-11T10:27:32;5.70;;;1.92;;
45762;SDS011;37512;52.408;13.356;2022-08-11T10:31:54;3.08;;;2.00;;
45762;SDS011;37512;52.408;13.356;2022-08-11T10:36:16;3.33;;;1.92;;
45762;SDS011;37512;52.408;13.356;2022-08-11T10:40:21;2.88;;;1.92;;
45762;SDS011;37512;52.408;13.356;2022-08-11T10:44:23;11.25;;;2.95;;
45762;SDS011;37512;52.408;13.356;2022-08-11T10:48:25;7.43;;;2.15;;
45762;SDS011;37512;52.408;13.356;2022-08-11T10:52:29;4.82;;;2.97;;
45762;SDS011;37512;52.408;13.356;2022-08-11T10:56:50;8.90;;;1.95;;
45762;SDS011;37512;52.408;13.356;2022-08-11T11:01:13;3.42;;;1.75;;
45762;SDS011;37512;52.408;13.356;2022-08-11T11:05:22;6.90;;;2.70;;
45762;SDS011;37512;52.408;13.356;2022-08-11T11:09:32;3.60;;;2.17;;
45762;SDS011;37512;52.408;13.356;2022-08-11T11:13:39;7.25;;;2.40;;
45762;SDS011;37512;52.408;13.356;2022-08-11T11:18:05;3.35;;;1.70;;
45762;SDS011;37512;52.408;13.356;2022-08-11T11:22:09;2.95;;;1.63;;
45762;SDS011;37512;52.408;13.356;2022-08-11T11:36:00;3.25;;;1.88;;
45762;SDS011;37512;52.408;13.356;2022-08-11T11:40:17;4.28;;;1.92;;
45762;SDS011;37512;52.408;13.356;2022-08-11T11:44:28;3.13;;;2.00;;
45762;SDS011;37512;52.408;13.356;2022-08-11T11:48:31;4.28;;;1.90;;
45762;SDS011;37512;52.408;13.356;2022-08-11T11:52:34;6.15;;;3.47;;
45762;SDS011;37512;52.408;13.356;2022-08-11T11:56:36;4.68;;;1.95;;
45762;SDS011;37512;52.408;13.356;2022-08-11T12:00:39;3.33;;;2.20;;
45762;SDS011;37512;52.408;13.356;2022-08-11T12:04:59;5.25;;;2.28;;
45762;SDS011;37512;52.408;13.356;2022-08-11T12:09:02;3.72;;;2.30;;
45762;SDS011;37512;52.408;13.356;2022-08-11T12:13:05;4.05;;;2.22;;
45762;SDS011;37512;52.408;13.356;2022-08-11T12:17:25;4.22;;;2.25;;
45762;SDS011;37512;52.408;13.356;2022-08-11T12:21:27;4.05;;;2.25;;
45762;SDS011;37512;52.408;13.356;2022-08-11T12:25:30;4.70;;;2.20;;
45762;SDS011;37512;52.408;13.356;2022-08-11T12:30:27;3.67;;;2.00;;
45762;SDS011;37512;52.408;13.356;2022-08-11T12:34:29;3.70;;;2.03;;
45762;SDS011;37512;52.408;13.356;2022-08-11T12:38:31;3.55;;;1.80;;
45762;SDS011;37512;52.408;13.356;2022-08-11T12:42:35;3.90;;;2.30;;
45762;SDS011;37512;52.408;13.356;2022-08-11T12:47:04;8.98;;;1.98;;
45762;SDS011;37512;52.408;13.356;2022-08-11T12:51:06;4.88;;;1.90;;
45762;SDS011;37512;52.408;13.356;2022-08-11T12:56:06;4.88;;;1.73;;
45762;SDS011;37512;52.408;13.356;2022-08-11T13:00:27;2.92;;;2.15;;
45762;SDS011;37512;52.408;13.356;2022-08-11T13:04:49;3.33;;;2.10;;
45762;SDS011;37512;52.408;13.356;2022-08-11T13:08:54;2.88;;;2.30;;
45762;SDS011;37512;52.408;13.356;2022-08-11T13:13:02;8.48;;;2.10;;
45762;SDS011;37512;52.408;13.356;2022-08-11T13:17:26;2.75;;;2.22;;
45762;SDS011;37512;52.408;13.356;2022-08-11T13:21:44;3.03;;;1.67;;
45762;SDS011;37512;52.408;13.356;2022-08-11T13:25:47;5.63;;;1.90;;
45762;SDS011;37512;52.408;13.356;2022-08-11T13:29:49;3.45;;;2.13;;
45762;SDS011;37512;52.408;13.356;2022-08-11T13:34:13;3.08;;;2.00;;
45762;SDS011;37512;52.408;13.356;2022-08-11T13:38:17;4.70;;;1.98;;
45762;SDS011;37512;52.408;13.356;2022-08-11T13:42:22;6.95;;;1.80;;
45762;SDS011;37512;52.408;13.356;2022-08-11T13:46:23;2.53;;;1.58;;
45762;SDS011;37512;52.408;13.356;2022-08-11T13:50:28;2.25;;;1.60;;
45762;SDS011;37512;52.408;13.356;2022-08-11T13:54:51;2.70;;;1.80;;
45762;SDS011;37512;52.408;13.356;2022-08-11T13:58:53;5.00;;;1.58;;
45762;SDS011;37512;52.408;13.356;2022-08-11T14:02:56;7.70;;;1.73;;
45762;SDS011;37512;52.408;13.356;2022-08-11T14:07:00;3.53;;;2.05;;
45762;SDS011;37512;52.408;13.356;2022-08-11T14:11:06;1.92;;;1.30;;
45762;SDS011;37512;52.408;13.356;2022-08-11T14:15:47;3.97;;;1.80;;
45762;SDS011;37512;52.408;13.356;2022-08-11T14:19:50;5.25;;;1.40;;
45762;SDS011;37512;52.408;13.356;2022-08-11T14:23:53;3.33;;;1.67;;
45762;SDS011;37512;52.408;13.356;2022-08-11T14:27:55;2.42;;;1.27;;
45762;SDS011;37512;52.408;13.356;2022-08-11T14:32:17;2.75;;;1.58;;
45762;SDS011;37512;52.408;13.356;2022-08-11T14:36:21;3.42;;;1.38;;
45762;SDS011;37512;52.408;13.356;2022-08-11T14:40:25;2.85;;;1.40;;
45762;SDS011;37512;52.408;13.356;2022-08-11T14:44:47;4.25;;;1.27;;
45762;SDS011;37512;52.408;13.356;2022-08-11T14:49:09;2.95;;;1.40;;
45762;SDS011;37512;52.408;13.356;2022-08-11T14:53:12;8.77;;;1.30;;
45762;SDS011;37512;52.408;13.356;2022-08-11T14:57:19;1.92;;;1.10;;
45762;SDS011;37512;52.408;13.356;2022-08-11T15:01:42;1.67;;;1.17;;
45762;SDS011;37512;52.408;13.356;2022-08-11T15:06:02;2.60;;;1.17;;
45762;SDS011;37512;52.408;13.356;2022-08-11T15:10:06;5.60;;;1.30;;
45762;SDS011;37512;52.408;13.356;2022-08-11T15:14:13;2.53;;;1.50;;
45762;SDS011;37512;52.408;13.356;2022-08-11T15:18:35;1.73;;;1.10;;
45762;SDS011;37512;52.408;13.356;2022-08-11T15:22:38;3.95;;;1.65;;
45762;SDS011;37512;52.408;13.356;2022-08-11T15:26:58;2.10;;;1.08;;
45762;SDS011;37512;52.408;13.356;2022-08-11T15:31:20;2.88;;;1.40;;
45762;SDS011;37512;52.408;13.356;2022-08-11T15:35:27;2.90;;;1.15;;
45762;SDS011;37512;52.408;13.356;2022-08-11T15:39:55;2.00;;;1.38;;
45762;SDS011;37512;52.408;13.356;2022-08-11T15:44:33;2.70;;;1.10;;
45762;SDS011;37512;52.408;13.356;2022-08-11T15:49:06;7.10;;;2.08;;
45762;SDS011;37512;52.408;13.356;2022-08-11T15:53:26;2.65;;;1.10;;
45762;SDS011;37512;52.408;13.356;2022-08-11T15:57:35;3.53;;;1.33;;
45762;SDS011;37512;52.408;13.356;2022-08-11T16:01:56;2.70;;;1.13;;
45762;SDS011;37512;52.408;13.356;2022-08-11T16:06:31;6.07;;;1.40;;
45762;SDS011;37512;52.408;13.356;2022-08-11T16:10:35;2.13;;;1.20;;
45762;SDS011;37512;52.408;13.356;2022-08-11T16:14:41;4.05;;;1.50;;
45762;SDS011;37512;52.408;13.356;2022-08-11T16:19:20;2.35;;;1.35;;
45762;SDS011;37512;52.408;13.356;2022-08-11T16:23:23;3.13;;;1.15;;
45762;SDS011;37512;52.408;13.356;2022-08-11T16:27:28;2.15;;;1.30;;
45762;SDS011;37512;52.408;13.356;2022-08-11T16:31:34;3.83;;;1.60;;
45762;SDS011;37512;52.408;13.356;2022-08-11T16:35:38;4.60;;;1.90;;
45762;SDS011;37512;52.408;13.356;2022-08-11T16:39:59;4.90;;;1.60;;
45762;SDS011;37512;52.408;13.356;2022-08-11T16:44:01;3.25;;;1.25;;
45762;SDS011;37512;52.408;13.356;2022-08-11T16:48:37;3.08;;;1.10;;
45762;SDS011;37512;52.408;13.356;2022-08-11T16:52:41;2.13;;;1.30;;
45762;SDS011;37512;52.408;13.356;2022-08-11T16:56:44;8.90;;;1.70;;
45762;SDS011;37512;52.408;13.356;2022-08-11T17:00:49;2.30;;;1.10;;
45762;SDS011;37512;52.408;13.356;2022-08-11T17:04:53;1.85;;;1.30;;
45762;SDS011;37512;52.408;13.356;2022-08-11T17:09:17;2.35;;;1.25;;
45762;SDS011;37512;52.408;13.356;2022-08-11T17:13:49;2.63;;;1.10;;
45762;SDS011;37512;52.408;13.356;2022-08-11T17:17:57;2.05;;;1.10;;
45762;SDS011;37512;52.408;13.356;2022-08-11T17:22:00;1.58;;;1.20;;
45762;SDS011;37512;52.408;13.356;2022-08-11T17:26:24;1.85;;;1.10;;
45762;SDS011;37512;52.408;13.356;2022-08-11T17:30:49;2.70;;;0.93;;
45762;SDS011;37512;52.408;13.356;2022-08-11T17:35:24;3.13;;;0.93;;
45762;SDS011;37512;52.408;13.356;2022-08-11T17:39:31;6.43;;;1.15;;
45762;SDS011;37512;52.408;13.356;2022-08-11T17:43:33;12.27;;;1.90;;
45762;SDS011;37512;52.408;13.356;2022-08-11T17:47:55;15.50;;;1.83;;
45762;SDS011;37512;52.408;13.356;2022-08-11T17:52:17;14.70;;;1.90;;
45762;SDS011;37512;52.408;13.356;2022-08-11T17:56:38;8.15;;;1.85;;
45762;SDS011;37512;52.408;13.356;2022-08-11T18:00:59;7.65;;;1.75;;
45762;SDS011;37512;52.408;13.356;2022-08-11T18:05:13;3.50;;;1.42;;
45762;SDS011;37512;52.408;13.356;2022-08-11T18:09:20;2.85;;;1.55;;
45762;SDS011;37512;52.408;13.356;2022-08-11T18:13:42;3.85;;;2.00;;
45762;SDS011;37512;52.408;13.356;2022-08-11T18:18:03;4.95;;;2.03;;
45762;SDS011;37512;52.408;13.356;2022-08-11T18:22:25;6.32;;;2.33;;
45762;SDS011;37512;52.408;13.356;2022-08-11T18:26:49;3.90;;;1.33;;
45762;SDS011;37512;52.408;13.356;2022-08-11T18:31:12;3.55;;;1.65;;
45762;SDS011;37512;52.408;13.356;2022-08-11T18:35:34;4.05;;;1.30;;
45762;SDS011;37512;52.408;13.356;2022-08-11T18:39:57;3.15;;;1.70;;
45762;SDS011;37512;52.408;13.356;2022-08-11T18:44:21;9.13;;;2.25;;
45762;SDS011;37512;52.408;13.356;2022-08-11T18:49:05;6.70;;;2.22;;
45762;SDS011;37512;52.408;13.356;2022-08-11T18:58:14;2.60;;;1.80;;
45762;SDS011;37512;52.408;13.356;2022-08-11T19:02:40;7.63;;;1.75;;
45762;SDS011;37512;52.408;13.356;2022-08-11T19:07:02;6.35;;;1.90;;
45762;SDS011;37512;52.408;13.356;2022-08-11T19:11:24;5.38;;;2.15;;
45762;SDS011;37512;52.408;13.356;2022-08-11T19:15:47;4.38;;;1.92;;
45762;SDS011;37512;52.408;13.356;2022-08-11T19:20:10;7.47;;;2.80;;
45762;SDS011;37512;52.408;13.356;2022-08-11T19:24:33;8.70;;;2.38;;
45762;SDS011;37512;52.408;13.356;2022-08-11T19:28:58;6.60;;;2.38;;
45762;SDS011;37512;52.408;13.356;2022-08-11T19:33:40;6.28;;;2.17;;
45762;SDS011;37512;52.408;13.356;2022-08-11T19:38:10;4.80;;;2.08;;
45762;SDS011;37512;52.408;13.356;2022-08-11T19:42:31;4.22;;;1.90;;
45762;SDS011;37512;52.408;13.356;2022-08-11T19:46:52;3.60;;;2.00;;
45762;SDS011;37512;52.408;13.356;2022-08-11T19:51:13;6.95;;;2.20;;
45762;SDS011;37512;52.408;13.356;2022-08-11T19:55:35;6.25;;;2.45;;
45762;SDS011;37512;52.408;13.356;2022-08-11T19:59:57;6.68;;;1.90;;
45762;SDS011;37512;52.408;13.356;2022-08-11T20:04:18;3.67;;;2.10;;
45762;SDS011;37512;52.408;13.356;2022-08-11T20:08:40;6.00;;;1.88;;
45762;SDS011;37512;52.408;13.356;2022-08-11T20:13:01;7.20;;;2.50;;
45762;SDS011;37512;52.408;13.356;2022-08-11T20:17:22;5.45;;;2.45;;
45762;SDS011;37512;52.408;13.356;2022-08-11T20:21:45;4.65;;;2.30;;
45762;SDS011;37512;52.408;13.356;2022-08-11T20:26:09;5.40;;;1.95;;
45762;SDS011;37512;52.408;13.356;2022-08-11T20:30:31;3.65;;;2.00;;
45762;SDS011;37512;52.408;13.356;2022-08-11T20:34:54;3.20;;;2.30;;
45762;SDS011;37512;52.408;13.356;2022-08-11T20:39:16;3.22;;;1.85;;
45762;SDS011;37512;52.408;13.356;2022-08-11T20:43:37;4.43;;;2.03;;
45762;SDS011;37512;52.408;13.356;2022-08-11T20:48:08;3.08;;;1.70;;
45762;SDS011;37512;52.408;13.356;2022-08-11T20:52:29;3.90;;;2.55;;
45762;SDS011;37512;52.408;13.356;2022-08-11T20:56:51;6.35;;;2.72;;
45762;SDS011;37512;52.408;13.356;2022-08-11T21:01:16;6.82;;;2.78;;
45762;SDS011;37512;52.408;13.356;2022-08-11T21:05:42;4.60;;;2.80;;
45762;SDS011;37512;52.408;13.356;2022-08-11T21:10:10;5.18;;;2.35;;
45762;SDS011;37512;52.408;13.356;2022-08-11T21:14:32;4.50;;;1.73;;
45762;SDS011;37512;52.408;13.356;2022-08-11T21:18:59;5.20;;;2.15;;
45762;SDS011;37512;52.408;13.356;2022-08-11T21:23:44;6.80;;;2.53;;
45762;SDS011;37512;52.408;13.356;2022-08-11T21:28:06;4.45;;;2.65;;
45762;SDS011;37512;52.408;13.356;2022-08-11T21:32:29;4.97;;;1.80;;
45762;SDS011;37512;52.408;13.356;2022-08-11T21:36:50;3.45;;;1.80;;
45762;SDS011;37512;52.408;13.356;2022-08-11T21:41:11;4.38;;;1.77;;
45762;SDS011;37512;52.408;13.356;2022-08-11T21:45:34;6.43;;;2.15;;
45762;SDS011;37512;52.408;13.356;2022-08-11T21:49:56;3.60;;;2.10;;
45762;SDS011;37512;52.408;13.356;2022-08-11T21:54:16;4.18;;;2.00;;
45762;SDS011;37512;52.408;13.356;2022-08-11T21:58:38;6.45;;;2.40;;
45762;SDS011;37512;52.408;13.356;2022-08-11T22:03:07;3.53;;;2.03;;
45762;SDS011;37512;52.408;13.356;2022-08-11T22:07:30;8.77;;;2.30;;
45762;SDS011;37512;52.408;13.356;2022-08-11T22:11:50;7.07;;;2.40;;
45762;SDS011;37512;52.408;13.356;2022-08-11T22:16:31;2.83;;;2.00;;
45762;SDS011;37512;52.408;13.356;2022-08-11T22:25:16;8.07;;;2.20;;
45762;SDS011;37512;52.408;13.356;2022-08-11T22:29:38;5.00;;;1.95;;
45762;SDS011;37512;52.408;13.356;2022-08-11T22:33:58;3.05;;;1.98;;
45762;SDS011;37512;52.408;13.356;2022-08-11T22:38:18;5.82;;;2.20;;
45762;SDS011;37512;52.408;13.356;2022-08-11T22:42:41;4.45;;;2.00;;
45762;SDS011;37512;52.408;13.356;2022-08-11T22:47:02;4.75;;;1.90;;
45762;SDS011;37512;52.408;13.356;2022-08-11T22:51:27;6.97;;;2.30;;
45762;SDS011;37512;52.408;13.356;2022-08-11T22:55:48;5.93;;;1.90;;
45762;SDS011;37512;52.408;13.356;2022-08-11T23:00:09;3.95;;;1.77;;
45762;SDS011;37512;52.408;13.356;2022-08-11T23:04:30;3.05;;;1.75;;
45762;SDS011;37512;52.408;13.356;2022-08-11T23:08:53;6.60;;;2.38;;
45762;SDS011;37512;52.408;13.356;2022-08-11T23:13:15;3.33;;;2.10;;
45762;SDS011;37512;52.408;13.356;2022-08-11T23:17:35;4.05;;;2.22;;
45762;SDS011;37512;52.408;13.356;2022-08-11T23:21:55;4.07;;;2.47;;
45762;SDS011;37512;52.408;13.356;2022-08-11T23:26:16;3.42;;;2.20;;
45762;SDS011;37512;52.408;13.356;2022-08-11T23:30:38;2.83;;;2.10;;
45762;SDS011;37512;52.408;13.356;2022-08-11T23:34:59;5.53;;;2.22;;
45762;SDS011;37512;52.408;13.356;2022-08-11T23:39:41;4.50;;;2.25;;
45762;SDS011;37512;52.408;13.356;2022-08-11T23:44:01;4.55;;;2.40;;
45762;SDS011;37512;52.408;13.356;2022-08-11T23:48:23;6.43;;;2.42;;
45762;SDS011;37512;52.408;13.356;2022-08-11T23:52:47;2.83;;;2.22;;
45762;SDS011;37512;52.408;13.356;2022-08-11T23:57:07;3.95;;;2.58;;
